sensor_id;sensor_type;location;lat;lon;timestamp;pressure;altitude;pressure_sealevel;temperature;humidity
7480;BME280;3781;42.272;22.658;2022-12-07T00:01:18;94550.31;;;7.25;100.00
7480;BME280;3781;42.272;22.658;2022-12-07T00:03:49;94550.53;;;7.22;100.00
7480;BME280;3781;42.272;22.658;2022-12-07T00:06:16;94548.91;;;7.21;100.00
7480;BME280;3781;42.272;22.658;2022-12-07T00:08:43;94547.69;;;7.03;100.00
7480;BME280;3781;42.272;22.658;2022-12-07T00:11:11;94552.84;;;6.92;100.00
7480;BME280;3781;42.272;22.658;2022-12-07T00:13:39;94561.25;;;6.83;100.00
7480;BME280;3781;42.272;22.658;2022-12-07T00:16:08;94516.88;;;6.67;100.00
7480;BME280;3781;42.272;22.658;2022-12-07T00:18:35;94548.50;;;6.93;100.00
7480;BME280;3781;42.272;22.658;2022-12-07T00:21:06;94554.50;;;6.93;100.00
7480;BME280;3781;42.272;22.658;2022-12-07T00:23:33;94560.72;;;7.02;100.00
7480;BME280;3781;42.272;22.658;2022-12-07T00:26:04;94553.09;;;6.89;100.00
7480;BME280;3781;42.272;22.658;2022-12-07T00:28:31;94560.03;;;7.00;100.00
7480;BME280;3781;42.272;22.658;2022-12-07T00:31:01;94526.53;;;6.76;100.00
7480;BME280;3781;42.272;22.658;2022-12-07T00:33:28;94564.50;;;7.09;100.00
7480;BME280;3781;42.272;22.658;2022-12-07T00:35:55;94551.22;;;6.91;100.00
7480;BME280;3781;42.272;22.658;2022-12-07T00:38:24;94562.47;;;7.01;100.00
7480;BME280;3781;42.272;22.658;2022-12-07T00:40:56;94562.00;;;6.96;100.00
7480;BME280;3781;42.272;22.658;2022-12-07T00:43:24;94559.03;;;6.90;100.00
7480;BME280;3781;42.272;22.658;2022-12-07T00:45:51;94556.81;;;6.85;100.00
7480;BME280;3781;42.272;22.658;2022-12-07T00:48:18;94557.28;;;6.55;100.00
7480;BME280;3781;42.272;22.658;2022-12-07T00:50:44;94552.91;;;6.45;100.00
7480;BME280;3781;42.272;22.658;2022-12-07T00:53:11;94551.09;;;6.58;100.00
7480;BME280;3781;42.272;22.658;2022-12-07T00:55:40;94549.47;;;6.68;100.00
7480;BME280;3781;42.272;22.658;2022-12-07T00:58:07;94549.97;;;6.73;100.00
7480;BME280;3781;42.272;22.658;2022-12-07T01:00:35;94511.38;;;6.37;100.00
7480;BME280;3781;42.272;22.658;2022-12-07T01:03:02;94544.47;;;6.43;100.00
7480;BME280;3781;42.272;22.658;2022-12-07T01:05:29;94541.13;;;6.30;100.00
7480;BME280;3781;42.272;22.658;2022-12-07T01:07:56;94538.34;;;6.33;100.00
7480;BME280;3781;42.272;22.658;2022-12-07T01:10:23;94536.69;;;6.32;100.00
7480;BME280;3781;42.272;22.658;2022-12-07T01:12:51;94539.75;;;6.37;100.00
7480;BME280;3781;42.272;22.658;2022-12-07T01:15:18;94532.34;;;6.32;100.00
7480;BME280;3781;42.272;22.658;2022-12-07T01:17:45;94515.03;;;6.11;100.00
7480;BME280;3781;42.272;22.658;2022-12-07T01:20:12;94528.44;;;6.27;100.00
7480;BME280;3781;42.272;22.658;2022-12-07T01:22:41;94529.66;;;6.34;100.00
7480;BME280;3781;42.272;22.658;2022-12-07T01:25:09;94530.84;;;6.41;100.00
7480;BME280;3781;42.272;22.658;2022-12-07T01:27:37;94521.78;;;6.70;100.00
7480;BME280;3781;42.272;22.658;2022-12-07T01:30:06;94525.03;;;6.84;100.00
7480;BME280;3781;42.272;22.658;2022-12-07T01:32:33;94523.22;;;6.63;100.00
7480;BME280;3781;42.272;22.658;2022-12-07T01:35:00;94526.00;;;6.60;100.00
7480;BME280;3781;42.272;22.658;2022-12-07T01:37:27;94536.81;;;6.65;100.00
7480;BME280;3781;42.272;22.658;2022-12-07T01:39:54;94535.19;;;6.40;100.00
7480;BME280;3781;42.272;22.658;2022-12-07T01:42:20;94524.00;;;6.29;100.00
7480;BME280;3781;42.272;22.658;2022-12-07T01:47:55;94510.72;;;6.57;100.00
7480;BME280;3781;42.272;22.658;2022-12-07T01:50:25;94483.97;;;6.47;100.00
7480;BME280;3781;42.272;22.658;2022-12-07T01:52:54;94511.47;;;6.59;100.00
7480;BME280;3781;42.272;22.658;2022-12-07T01:55:22;94512.03;;;6.51;100.00
7480;BME280;3781;42.272;22.658;2022-12-07T01:57:51;94505.31;;;6.49;100.00
7480;BME280;3781;42.272;22.658;2022-12-07T02:00:19;94504.16;;;6.53;100.00
7480;BME280;3781;42.272;22.658;2022-12-07T02:02:48;94500.66;;;6.54;100.00
7480;BME280;3781;42.272;22.658;2022-12-07T02:05:19;94506.69;;;6.42;100.00
7480;BME280;3781;42.272;22.658;2022-12-07T02:07:47;94504.81;;;6.44;100.00
7480;BME280;3781;42.272;22.658;2022-12-07T02:10:17;94506.28;;;6.48;100.00
7480;BME280;3781;42.272;22.658;2022-12-07T02:12:47;94480.78;;;6.32;100.00
7480;BME280;3781;42.272;22.658;2022-12-07T02:15:15;94508.16;;;6.46;100.00
7480;BME280;3781;42.272;22.658;2022-12-07T02:17:47;94507.09;;;6.25;100.00
7480;BME280;3781;42.272;22.658;2022-12-07T02:20:28;94507.44;;;6.20;100.00
7480;BME280;3781;42.272;22.658;2022-12-07T02:26:38;94491.16;;;6.20;100.00
7480;BME280;3781;42.272;22.658;2022-12-07T02:29:19;94478.28;;;5.83;100.00
7480;BME280;3781;42.272;22.658;2022-12-07T02:31:55;94494.06;;;5.91;100.00
7480;BME280;3781;42.272;22.658;2022-12-07T02:34:32;94489.31;;;6.09;100.00
7480;BME280;3781;42.272;22.658;2022-12-07T02:37:07;94492.28;;;6.16;100.00
7480;BME280;3781;42.272;22.658;2022-12-07T02:39:42;94479.91;;;6.21;100.00
7480;BME280;3781;42.272;22.658;2022-12-07T02:42:14;94479.56;;;6.25;100.00
7480;BME280;3781;42.272;22.658;2022-12-07T02:44:44;94478.28;;;6.31;100.00
7480;BME280;3781;42.272;22.658;2022-12-07T02:47:14;94479.56;;;6.25;100.00
7480;BME280;3781;42.272;22.658;2022-12-07T02:49:42;94482.03;;;6.27;100.00
7480;BME280;3781;42.272;22.658;2022-12-07T02:52:09;94473.06;;;6.08;100.00
7480;BME280;3781;42.272;22.658;2022-12-07T02:54:36;94488.81;;;5.93;100.00
7480;BME280;3781;42.272;22.658;2022-12-07T02:57:13;94483.13;;;6.12;100.00
7480;BME280;3781;42.272;22.658;2022-12-07T02:59:54;94494.00;;;6.28;100.00
7480;BME280;3781;42.272;22.658;2022-12-07T03:02:31;94479.28;;;6.41;100.00
7480;BME280;3781;42.272;22.658;2022-12-07T03:05:09;94477.31;;;6.55;100.00
7480;BME280;3781;42.272;22.658;2022-12-07T03:07:47;94489.88;;;6.60;100.00
7480;BME280;3781;42.272;22.658;2022-12-07T03:10:20;94480.50;;;6.59;100.00
7480;BME280;3781;42.272;22.658;2022-12-07T03:12:57;94481.22;;;6.61;100.00
7480;BME280;3781;42.272;22.658;2022-12-07T03:15:32;94481.78;;;6.64;100.00
7480;BME280;3781;42.272;22.658;2022-12-07T03:18:00;94452.94;;;6.25;100.00
7480;BME280;3781;42.272;22.658;2022-12-07T03:20:29;94479.28;;;6.41;100.00
7480;BME280;3781;42.272;22.658;2022-12-07T03:22:57;94485.13;;;6.43;100.00
7480;BME280;3781;42.272;22.658;2022-12-07T03:25:26;94487.38;;;6.47;100.00
7480;BME280;3781;42.272;22.658;2022-12-07T03:27:55;94483.75;;;6.50;100.00
7480;BME280;3781;42.272;22.658;2022-12-07T03:30:29;94492.56;;;6.24;100.00
7480;BME280;3781;42.272;22.658;2022-12-07T03:33:00;94496.25;;;6.08;100.00
7480;BME280;3781;42.272;22.658;2022-12-07T03:35:31;94490.44;;;5.81;100.00
7480;BME280;3781;42.272;22.658;2022-12-07T03:38:05;94449.34;;;5.56;100.00
7480;BME280;3781;42.272;22.658;2022-12-07T03:40:42;94481.38;;;5.88;100.00
7480;BME280;3781;42.272;22.658;2022-12-07T03:43:11;94486.09;;;5.94;100.00
7480;BME280;3781;42.272;22.658;2022-12-07T03:45:41;94479.31;;;5.93;100.00
7480;BME280;3781;42.272;22.658;2022-12-07T03:48:16;94486.66;;;6.11;100.00
7480;BME280;3781;42.272;22.658;2022-12-07T03:50:48;94483.97;;;6.12;100.00
7480;BME280;3781;42.272;22.658;2022-12-07T03:53:20;94483.69;;;6.28;100.00
7480;BME280;3781;42.272;22.658;2022-12-07T03:55:49;94483.69;;;6.28;100.00
7480;BME280;3781;42.272;22.658;2022-12-07T03:58:19;94476.06;;;6.26;100.00
7480;BME280;3781;42.272;22.658;2022-12-07T04:00:49;94479.50;;;6.38;100.00
7480;BME280;3781;42.272;22.658;2022-12-07T04:03:16;94472.53;;;6.27;100.00
7480;BME280;3781;42.272;22.658;2022-12-07T04:05:44;94470.06;;;6.26;100.00
7480;BME280;3781;42.272;22.658;2022-12-07T04:08:11;94462.09;;;6.29;100.00
7480;BME280;3781;42.272;22.658;2022-12-07T04:10:38;94455.94;;;6.07;100.00
7480;BME280;3781;42.272;22.658;2022-12-07T04:13:05;94462.69;;;5.97;100.00
7480;BME280;3781;42.272;22.658;2022-12-07T04:15:32;94456.44;;;5.89;100.00
7480;BME280;3781;42.272;22.658;2022-12-07T04:18:00;94466.13;;;5.85;100.00
7480;BME280;3781;42.272;22.658;2022-12-07T04:20:26;94460.63;;;5.66;100.00
7480;BME280;3781;42.272;22.658;2022-12-07T04:22:53;94468.06;;;5.58;100.00
7480;BME280;3781;42.272;22.658;2022-12-07T04:25:20;94438.97;;;5.45;100.00
7480;BME280;3781;42.272;22.658;2022-12-07T04:27:47;94467.97;;;5.83;100.00
7480;BME280;3781;42.272;22.658;2022-12-07T04:30:14;94470.47;;;5.72;100.00
7480;BME280;3781;42.272;22.658;2022-12-07T04:32:40;94462.28;;;5.67;100.00
7480;BME280;3781;42.272;22.658;2022-12-07T04:35:09;94465.56;;;5.69;100.00
7480;BME280;3781;42.272;22.658;2022-12-07T04:37:36;94468.84;;;5.71;100.00
7480;BME280;3781;42.272;22.658;2022-12-07T04:40:06;94467.19;;;5.70;100.00
7480;BME280;3781;42.272;22.658;2022-12-07T04:42:33;94463.34;;;5.88;100.00
7480;BME280;3781;42.272;22.658;2022-12-07T04:45:00;94471.50;;;5.82;100.00
7480;BME280;3781;42.272;22.658;2022-12-07T04:47:27;94470.25;;;5.88;100.00
7480;BME280;3781;42.272;22.658;2022-12-07T04:49:54;94470.97;;;5.90;100.00
7480;BME280;3781;42.272;22.658;2022-12-07T04:52:22;94477.66;;;5.92;100.00
7480;BME280;3781;42.272;22.658;2022-12-07T04:54:48;94475.19;;;5.91;100.00
7480;BME280;3781;42.272;22.658;2022-12-07T04:57:15;94474.16;;;5.81;100.00
7480;BME280;3781;42.272;22.658;2022-12-07T04:59:42;94472.59;;;5.67;100.00
7480;BME280;3781;42.272;22.658;2022-12-07T05:02:09;94474.59;;;5.75;100.00
7480;BME280;3781;42.272;22.658;2022-12-07T05:04:35;94478.94;;;5.74;100.00
7480;BME280;3781;42.272;22.658;2022-12-07T05:07:02;94460.19;;;5.72;100.00
7480;BME280;3781;42.272;22.658;2022-12-07T05:09:30;94480.44;;;5.53;100.00
7480;BME280;3781;42.272;22.658;2022-12-07T05:11:57;94458.84;;;5.43;100.00
7480;BME280;3781;42.272;22.658;2022-12-07T05:14:24;94457.97;;;5.55;100.00
7480;BME280;3781;42.272;22.658;2022-12-07T05:16:51;94477.41;;;5.84;100.00
7480;BME280;3781;42.272;22.658;2022-12-07T05:19:19;94470.88;;;5.91;100.00
7480;BME280;3781;42.272;22.658;2022-12-07T05:21:46;94475.78;;;5.94;100.00
7480;BME280;3781;42.272;22.658;2022-12-07T05:24:15;94471.72;;;6.03;100.00
7480;BME280;3781;42.272;22.658;2022-12-07T05:26:44;94474.31;;;6.03;100.00
7480;BME280;3781;42.272;22.658;2022-12-07T05:29:11;94469.41;;;6.00;100.00
7480;BME280;3781;42.272;22.658;2022-12-07T05:31:38;94474.94;;;6.06;100.00
7480;BME280;3781;42.272;22.658;2022-12-07T05:34:05;94484.88;;;5.87;100.00
7480;BME280;3781;42.272;22.658;2022-12-07T05:36:32;94482.25;;;5.64;100.00
7480;BME280;3781;42.272;22.658;2022-12-07T05:38:59;94480.44;;;5.53;100.00
7480;BME280;3781;42.272;22.658;2022-12-07T05:41:26;94479.38;;;5.68;100.00
7480;BME280;3781;42.272;22.658;2022-12-07T05:44:12;94474.56;;;5.87;100.00
7480;BME280;3781;42.272;22.658;2022-12-07T05:46:38;94471.84;;;6.01;100.00
7480;BME280;3781;42.272;22.658;2022-12-07T05:49:05;94472.69;;;6.02;100.00
7480;BME280;3781;42.272;22.658;2022-12-07T05:51:32;94473.09;;;5.96;100.00
7480;BME280;3781;42.272;22.658;2022-12-07T05:53:59;94473.53;;;5.90;100.00
7480;BME280;3781;42.272;22.658;2022-12-07T05:56:25;94469.66;;;5.84;100.00
7480;BME280;3781;42.272;22.658;2022-12-07T05:58:53;94466.34;;;5.82;100.00
7480;BME280;3781;42.272;22.658;2022-12-07T06:01:39;94465.97;;;5.76;100.00
7480;BME280;3781;42.272;22.658;2022-12-07T06:04:05;94464.06;;;5.54;100.00
7480;BME280;3781;42.272;22.658;2022-12-07T06:06:32;94467.31;;;5.69;100.00
7480;BME280;3781;42.272;22.658;2022-12-07T06:08:59;94480.78;;;5.72;100.00
7480;BME280;3781;42.272;22.658;2022-12-07T06:11:26;94458.44;;;5.73;100.00
7480;BME280;3781;42.272;22.658;2022-12-07T06:14:10;94445.09;;;5.79;100.00
7480;BME280;3781;42.272;22.658;2022-12-07T06:16:36;94480.59;;;6.23;100.00
7480;BME280;3781;42.272;22.658;2022-12-07T06:19:05;94478.03;;;6.23;100.00
7480;BME280;3781;42.272;22.658;2022-12-07T06:21:31;94481.06;;;6.17;100.00
7480;BME280;3781;42.272;22.658;2022-12-07T06:23:58;94484.34;;;6.19;100.00
7480;BME280;3781;42.272;22.658;2022-12-07T06:26:25;94473.81;;;6.22;100.00
7480;BME280;3781;42.272;22.658;2022-12-07T06:28:51;94479.63;;;6.13;100.00
7480;BME280;3781;42.272;22.658;2022-12-07T06:31:18;94468.03;;;6.18;100.00
7480;BME280;3781;42.272;22.658;2022-12-07T06:33:45;94480.53;;;6.35;100.00
7480;BME280;3781;42.272;22.658;2022-12-07T06:36:13;94481.88;;;6.52;100.00
7480;BME280;3781;42.272;22.658;2022-12-07T06:38:39;94478.16;;;6.56;100.00
7480;BME280;3781;42.272;22.658;2022-12-07T06:41:06;94475.91;;;6.51;100.00
7480;BME280;3781;42.272;22.658;2022-12-07T06:43:33;94482.09;;;6.49;100.00
7480;BME280;3781;42.272;22.658;2022-12-07T06:46:00;94478.81;;;6.47;100.00
7480;BME280;3781;42.272;22.658;2022-12-07T06:48:27;94470.63;;;6.53;100.00
7480;BME280;3781;42.272;22.658;2022-12-07T06:50:54;94489.00;;;6.72;100.00
7480;BME280;3781;42.272;22.658;2022-12-07T06:53:22;94482.22;;;6.93;100.00
7480;BME280;3781;42.272;22.658;2022-12-07T06:55:49;94482.78;;;6.97;100.00
7480;BME280;3781;42.272;22.658;2022-12-07T06:58:16;94494.78;;;6.98;100.00
7480;BME280;3781;42.272;22.658;2022-12-07T07:00:43;94483.63;;;7.08;100.00
7480;BME280;3781;42.272;22.658;2022-12-07T07:03:10;94489.50;;;7.10;100.00
7480;BME280;3781;42.272;22.658;2022-12-07T07:05:37;94485.34;;;6.85;100.00
7480;BME280;3781;42.272;22.658;2022-12-07T07:08:04;94486.41;;;6.83;100.00
7480;BME280;3781;42.272;22.658;2022-12-07T07:10:32;94491.81;;;6.80;100.00
7480;BME280;3781;42.272;22.658;2022-12-07T07:12:59;94489.22;;;6.80;100.00
7480;BME280;3781;42.272;22.658;2022-12-07T07:15:25;94484.88;;;6.92;100.00
7480;BME280;3781;42.272;22.658;2022-12-07T07:17:52;94466.03;;;7.13;100.00
7480;BME280;3781;42.272;22.658;2022-12-07T07:20:19;94482.69;;;7.31;100.00
7480;BME280;3781;42.272;22.658;2022-12-07T07:22:46;94476.59;;;7.43;100.00
7480;BME280;3781;42.272;22.658;2022-12-07T07:25:12;94465.78;;;7.49;100.00
7480;BME280;3781;42.272;22.658;2022-12-07T07:27:41;94471.78;;;7.61;100.00
7480;BME280;3781;42.272;22.658;2022-12-07T07:30:08;94460.81;;;7.57;100.00
7480;BME280;3781;42.272;22.658;2022-12-07T07:32:35;94488.66;;;7.76;100.00
7480;BME280;3781;42.272;22.658;2022-12-07T07:35:02;94484.91;;;7.58;100.00
7480;BME280;3781;42.272;22.658;2022-12-07T07:37:29;94467.38;;;7.73;100.00
7480;BME280;3781;42.272;22.658;2022-12-07T07:39:56;94477.00;;;7.82;100.00
7480;BME280;3781;42.272;22.658;2022-12-07T07:42:22;94466.78;;;7.91;100.00
7480;BME280;3781;42.272;22.658;2022-12-07T07:44:51;94492.25;;;7.96;100.00
7480;BME280;3781;42.272;22.658;2022-12-07T07:47:17;94485.47;;;7.84;100.00
7480;BME280;3781;42.272;22.658;2022-12-07T07:49:44;94482.50;;;7.88;100.00
7480;BME280;3781;42.272;22.658;2022-12-07T07:52:11;94469.91;;;7.95;100.00
7480;BME280;3781;42.272;22.658;2022-12-07T07:54:37;94483.44;;;8.62;100.00
7480;BME280;3781;42.272;22.658;2022-12-07T07:57:04;94474.38;;;9.18;100.00
7480;BME280;3781;42.272;22.658;2022-12-07T07:59:31;94496.88;;;9.87;100.00
7480;BME280;3781;42.272;22.658;2022-12-07T08:01:59;94494.84;;;10.31;100.00
7480;BME280;3781;42.272;22.658;2022-12-07T08:04:25;94494.56;;;10.24;100.00
7480;BME280;3781;42.272;22.658;2022-12-07T08:06:52;94493.44;;;10.75;100.00
7480;BME280;3781;42.272;22.658;2022-12-07T08:09:19;94486.34;;;10.96;94.95
7480;BME280;3781;42.272;22.658;2022-12-07T08:11:46;94501.75;;;11.16;92.67
7480;BME280;3781;42.272;22.658;2022-12-07T08:14:12;94496.63;;;11.44;90.67
7480;BME280;3781;42.272;22.658;2022-12-07T08:16:39;94494.50;;;12.21;86.78
7480;BME280;3781;42.272;22.658;2022-12-07T08:19:07;94498.31;;;12.79;80.69
7480;BME280;3781;42.272;22.658;2022-12-07T08:21:34;94512.97;;;13.67;74.33
7480;BME280;3781;42.272;22.658;2022-12-07T08:24:01;94512.09;;;15.40;66.92
7480;BME280;3781;42.272;22.658;2022-12-07T08:26:27;94509.28;;;16.20;62.06
7480;BME280;3781;42.272;22.658;2022-12-07T08:28:54;94507.84;;;16.10;58.83
7480;BME280;3781;42.272;22.658;2022-12-07T08:31:21;94505.19;;;14.66;62.71
7480;BME280;3781;42.272;22.658;2022-12-07T08:33:48;94502.84;;;13.97;68.12
7480;BME280;3781;42.272;22.658;2022-12-07T08:36:17;94507.03;;;13.82;68.97
7480;BME280;3781;42.272;22.658;2022-12-07T08:38:43;94499.03;;;14.17;67.90
7480;BME280;3781;42.272;22.658;2022-12-07T08:41:10;94500.41;;;13.96;65.66
7480;BME280;3781;42.272;22.658;2022-12-07T08:43:37;94503.84;;;13.37;67.34
7480;BME280;3781;42.272;22.658;2022-12-07T08:46:06;94494.91;;;12.61;70.46
7480;BME280;3781;42.272;22.658;2022-12-07T08:48:38;94480.75;;;12.46;72.38
7480;BME280;3781;42.272;22.658;2022-12-07T08:51:07;94497.72;;;13.46;70.01
7480;BME280;3781;42.272;22.658;2022-12-07T08:53:37;94491.50;;;13.21;70.12
7480;BME280;3781;42.272;22.658;2022-12-07T08:56:05;94499.44;;;13.63;69.09
7480;BME280;3781;42.272;22.658;2022-12-07T08:58:35;94493.09;;;13.66;68.90
7480;BME280;3781;42.272;22.658;2022-12-07T09:01:03;94498.34;;;13.74;69.02
7480;BME280;3781;42.272;22.658;2022-12-07T09:03:30;94484.81;;;13.70;68.42
7480;BME280;3781;42.272;22.658;2022-12-07T09:05:57;94489.09;;;13.53;68.90
7480;BME280;3781;42.272;22.658;2022-12-07T09:08:28;94480.22;;;13.38;68.09
7480;BME280;3781;42.272;22.658;2022-12-07T09:10:58;94479.09;;;13.15;70.65
7480;BME280;3781;42.272;22.658;2022-12-07T09:13:24;94478.34;;;12.87;70.73
7480;BME280;3781;42.272;22.658;2022-12-07T09:15:51;94480.44;;;12.84;72.41
7480;BME280;3781;42.272;22.658;2022-12-07T09:18:18;94468.19;;;12.76;72.45
7480;BME280;3781;42.272;22.658;2022-12-07T09:20:44;94470.31;;;12.81;72.28
7480;BME280;3781;42.272;22.658;2022-12-07T09:23:11;94473.50;;;12.93;73.67
7480;BME280;3781;42.272;22.658;2022-12-07T09:25:38;94472.88;;;12.99;72.39
7480;BME280;3781;42.272;22.658;2022-12-07T09:28:06;94462.41;;;13.34;70.27
7480;BME280;3781;42.272;22.658;2022-12-07T09:30:34;94437.00;;;13.36;71.60
7480;BME280;3781;42.272;22.658;2022-12-07T09:33:01;94459.28;;;13.98;68.38
7480;BME280;3781;42.272;22.658;2022-12-07T09:35:28;94459.69;;;14.27;67.30
7480;BME280;3781;42.272;22.658;2022-12-07T09:37:55;94454.94;;;14.22;64.84
7480;BME280;3781;42.272;22.658;2022-12-07T09:40:22;94454.28;;;14.12;63.34
7480;BME280;3781;42.272;22.658;2022-12-07T09:42:51;94450.53;;;14.07;63.89
7480;BME280;3781;42.272;22.658;2022-12-07T09:45:23;94428.88;;;13.81;65.54
7480;BME280;3781;42.272;22.658;2022-12-07T09:47:50;94428.00;;;14.14;64.64
7480;BME280;3781;42.272;22.658;2022-12-07T09:50:20;94425.66;;;13.95;66.85
7480;BME280;3781;42.272;22.658;2022-12-07T09:52:47;94420.78;;;13.92;68.08
7480;BME280;3781;42.272;22.658;2022-12-07T09:55:20;94417.81;;;13.45;68.85
7480;BME280;3781;42.272;22.658;2022-12-07T09:57:49;94423.78;;;13.71;68.68
7480;BME280;3781;42.272;22.658;2022-12-07T10:00:21;94396.94;;;14.03;67.66
7480;BME280;3781;42.272;22.658;2022-12-07T10:02:53;94383.28;;;14.17;66.95
7480;BME280;3781;42.272;22.658;2022-12-07T10:05:24;94418.59;;;14.29;66.22
7480;BME280;3781;42.272;22.658;2022-12-07T10:07:53;94411.91;;;14.51;66.61
7480;BME280;3781;42.272;22.658;2022-12-07T10:10:24;94414.69;;;15.68;61.64
7480;BME280;3781;42.272;22.658;2022-12-07T10:12:57;94421.19;;;16.73;56.72
7480;BME280;3781;42.272;22.658;2022-12-07T10:15:41;94414.66;;;16.91;54.92
7480;BME280;3781;42.272;22.658;2022-12-07T10:18:18;94416.53;;;15.99;57.16
7480;BME280;3781;42.272;22.658;2022-12-07T10:20:46;94418.91;;;16.16;57.23
7480;BME280;3781;42.272;22.658;2022-12-07T10:23:15;94424.03;;;17.23;54.71
7480;BME280;3781;42.272;22.658;2022-12-07T10:25:42;94420.03;;;18.86;50.17
7480;BME280;3781;42.272;22.658;2022-12-07T10:28:13;94416.53;;;19.00;48.98
7480;BME280;3781;42.272;22.658;2022-12-07T10:30:51;94406.38;;;20.21;45.46
7480;BME280;3781;42.272;22.658;2022-12-07T10:33:30;94411.81;;;21.91;42.08
7480;BME280;3781;42.272;22.658;2022-12-07T10:35:57;94374.63;;;23.55;38.99
7480;BME280;3781;42.272;22.658;2022-12-07T10:38:25;94390.13;;;23.52;38.52
7480;BME280;3781;42.272;22.658;2022-12-07T10:41:03;94373.25;;;20.85;42.06
7480;BME280;3781;42.272;22.658;2022-12-07T10:43:30;94365.13;;;19.32;45.31
7480;BME280;3781;42.272;22.658;2022-12-07T10:49:03;94367.66;;;16.82;51.80
7480;BME280;3781;42.272;22.658;2022-12-07T10:51:38;94356.50;;;16.20;54.05
7480;BME280;3781;42.272;22.658;2022-12-07T10:54:12;94354.50;;;15.22;57.08
7480;BME280;3781;42.272;22.658;2022-12-07T10:56:59;94357.22;;;14.65;59.85
7480;BME280;3781;42.272;22.658;2022-12-07T10:59:53;94336.59;;;14.14;61.70
7480;BME280;3781;42.272;22.658;2022-12-07T11:02:36;94341.22;;;14.52;62.06
7480;BME280;3781;42.272;22.658;2022-12-07T11:05:17;94339.00;;;16.12;56.35
7480;BME280;3781;42.272;22.658;2022-12-07T11:07:57;94337.19;;;17.97;52.99
7480;BME280;3781;42.272;22.658;2022-12-07T11:10:32;94348.19;;;20.29;45.72
7480;BME280;3781;42.272;22.658;2022-12-07T11:16:08;94338.03;;;21.83;42.37
7480;BME280;3781;42.272;22.658;2022-12-07T11:18:52;94344.22;;;21.38;41.67
7480;BME280;3781;42.272;22.658;2022-12-07T11:21:28;94339.09;;;21.49;42.24
7480;BME280;3781;42.272;22.658;2022-12-07T11:24:01;94337.84;;;22.53;40.09
7480;BME280;3781;42.272;22.658;2022-12-07T11:26:46;94330.03;;;24.00;36.96
7480;BME280;3781;42.272;22.658;2022-12-07T11:29:33;94317.97;;;23.25;37.67
7480;BME280;3781;42.272;22.658;2022-12-07T11:32:14;94291.16;;;22.34;38.67
7480;BME280;3781;42.272;22.658;2022-12-07T11:34:55;94331.44;;;22.36;39.33
7480;BME280;3781;42.272;22.658;2022-12-07T11:37:28;94285.88;;;22.34;38.97
7480;BME280;3781;42.272;22.658;2022-12-07T11:39:59;94323.06;;;22.77;38.43
7480;BME280;3781;42.272;22.658;2022-12-07T11:42:30;94327.78;;;22.37;38.80
7480;BME280;3781;42.272;22.658;2022-12-07T11:45:03;94321.06;;;20.61;41.91
7480;BME280;3781;42.272;22.658;2022-12-07T11:47:40;94318.63;;;19.45;44.42
7480;BME280;3781;42.272;22.658;2022-12-07T11:50:23;94305.38;;;18.98;45.65
7480;BME280;3781;42.272;22.658;2022-12-07T11:52:56;94307.28;;;17.48;48.79
7480;BME280;3781;42.272;22.658;2022-12-07T11:55:27;94298.31;;;17.28;49.63
7480;BME280;3781;42.272;22.658;2022-12-07T11:58:00;94289.19;;;16.80;50.86
7480;BME280;3781;42.272;22.658;2022-12-07T12:00:29;94291.88;;;17.74;49.43
7480;BME280;3781;42.272;22.658;2022-12-07T12:03:01;94285.66;;;18.88;47.15
7480;BME280;3781;42.272;22.658;2022-12-07T12:05:30;94276.38;;;18.22;47.18
7480;BME280;3781;42.272;22.658;2022-12-07T12:08:03;94276.16;;;19.62;45.35
7480;BME280;3781;42.272;22.658;2022-12-07T12:10:42;94276.16;;;21.27;41.57
7480;BME280;3781;42.272;22.658;2022-12-07T12:13:23;94278.31;;;22.94;38.77
7480;BME280;3781;42.272;22.658;2022-12-07T12:16:08;94276.66;;;24.26;36.52
7480;BME280;3781;42.272;22.658;2022-12-07T12:19:02;94267.84;;;24.44;35.57
7480;BME280;3781;42.272;22.658;2022-12-07T12:21:39;94277.88;;;25.29;34.52
7480;BME280;3781;42.272;22.658;2022-12-07T12:24:11;94276.59;;;26.91;32.31
7480;BME280;3781;42.272;22.658;2022-12-07T12:26:49;94269.63;;;28.70;29.50
7480;BME280;3781;42.272;22.658;2022-12-07T12:29:21;94266.72;;;29.35;28.38
7480;BME280;3781;42.272;22.658;2022-12-07T12:32:06;94257.72;;;29.56;27.63
7480;BME280;3781;42.272;22.658;2022-12-07T12:34:39;94266.38;;;29.68;27.69
7480;BME280;3781;42.272;22.658;2022-12-07T12:37:42;94254.69;;;27.22;29.63
7480;BME280;3781;42.272;22.658;2022-12-07T12:40:39;94249.59;;;25.12;32.64
7480;BME280;3781;42.272;22.658;2022-12-07T12:43:42;94240.84;;;23.87;34.73
7480;BME280;3781;42.272;22.658;2022-12-07T12:46:37;94241.13;;;21.51;38.37
7480;BME280;3781;42.272;22.658;2022-12-07T12:49:32;94238.84;;;21.61;38.43
7480;BME280;3781;42.272;22.658;2022-12-07T12:52:00;94244.81;;;21.37;39.06
7480;BME280;3781;42.272;22.658;2022-12-07T12:54:31;94241.66;;;20.82;40.52
7480;BME280;3781;42.272;22.658;2022-12-07T12:57:03;94241.22;;;21.25;39.79
7480;BME280;3781;42.272;22.658;2022-12-07T12:59:33;94209.81;;;20.25;40.87
7480;BME280;3781;42.272;22.658;2022-12-07T13:02:21;94227.53;;;19.23;43.88
7480;BME280;3781;42.272;22.658;2022-12-07T13:04:52;94218.19;;;18.03;46.09
7480;BME280;3781;42.272;22.658;2022-12-07T13:07:54;94217.72;;;17.58;47.42
7480;BME280;3781;42.272;22.658;2022-12-07T13:10:30;94221.97;;;16.79;49.33
7480;BME280;3781;42.272;22.658;2022-12-07T13:13:00;94223.41;;;16.15;51.14
7480;BME280;3781;42.272;22.658;2022-12-07T13:15:32;94217.44;;;15.31;53.54
7480;BME280;3781;42.272;22.658;2022-12-07T13:18:04;94213.09;;;14.76;55.32
7480;BME280;3781;42.272;22.658;2022-12-07T13:20:49;94209.22;;;14.56;56.48
7480;BME280;3781;42.272;22.658;2022-12-07T13:23:22;94214.50;;;15.26;55.73
7480;BME280;3781;42.272;22.658;2022-12-07T13:26:12;94216.22;;;16.46;52.93
7480;BME280;3781;42.272;22.658;2022-12-07T13:28:42;94213.13;;;17.45;50.49
7480;BME280;3781;42.272;22.658;2022-12-07T13:31:18;94214.38;;;18.34;47.73
7480;BME280;3781;42.272;22.658;2022-12-07T13:33:47;94217.22;;;18.32;47.44
7480;BME280;3781;42.272;22.658;2022-12-07T13:36:21;94222.53;;;18.94;45.72
7480;BME280;3781;42.272;22.658;2022-12-07T13:38:53;94214.78;;;18.86;45.62
7480;BME280;3781;42.272;22.658;2022-12-07T13:41:22;94220.94;;;17.95;48.30